Holgate, Ohio
Current Conditions -  °F | °C
As of 4:53 PM on Monday 26 Jan 2015 (Local Time) from KDFI Reporting Station
Broken Clouds Broken Clouds  
Wind Chill: 22°   Ceiling: 9000
Heat Index: 22°   Visibility: 10mi
Dew Point:   Wind: 3mph
Humidity: 55%   Direction: 310°NW
Pressure: 29.93"   Gusts: NA
Location:  41.25°N, 84.13°W
Report Text: KDFI 262153Z AUTO 31003KT 10SM BKN090 M06/M13 A2993 RMK AO2 SLP148 T10561133
Loading
Personal Weather Stations






























Interactive Weather Map New forecast layout! Learn more

10-Day Weather Forecast

Advertisements
Track Severe Weather on mobile